Terminal Aerodrome Forecast
Issued by NWS

Home | Current Version | Previous Version | Text Only | Print | Product List | Glossary On
Versions: 1 2 3 4 5 6 7 8 9 10 11 12 13 14 15
000
FTUS46 KSEW 240500
TAFHQM
TAF
KHQM 240524Z 2406/2506 11010KT 4SM RA BR OVC015
      TEMPO 2406/2410 16015G25KT 2SM RA BR OVC007
     FM241000 18015G25KT 5SM RA BR OVC015
     FM241500 21018G28KT 5SM -SHRA BR BKN015 OVC030
     FM241900 22015G25KT P6SM -SHRA SCT015 BKN035
     FM250300 18009KT P6SM VCSH BKN030 BKN050=

USA.gov is the U.S. government's official web portal to all federal, state and local government web resources and services.